METAR Data
IDs: Format: Raw Decoded Include TAF

Data at: 0107 UTC 20 Jul 2019

METAR for:KHLX (Hillsville/Twin Cnty, VA, US)
Text:KHLX 200055Z AUTO 28003KT 10SM CLR 27/22 A3012 RMK AO2 T02680223
Temperature: 26.8°C ( 80°F)
Dewpoint: 22.3°C ( 72°F) [RH = 76%]
Pressure (altimeter):30.12 inches Hg (1020.1 mb)
Winds:from the W (280 degrees) at 3 MPH (3 knots; 1.5 m/s)
Visibility:10 or more sm (16+ km)
Ceiling:at least 12,000 feet AGL
Clouds:sky clear below 12,000 feet AGL
QC Flag:automated observation with no human augmentation